createdAt,value
2018-09-26T00:00:31.891Z,102073
2018-09-26T00:01:36.253Z,102056
2018-09-26T00:02:41.703Z,102058
2018-09-26T00:03:46.926Z,102056
2018-09-26T00:04:52.076Z,102056
2018-09-26T00:05:57.540Z,102067
2018-09-26T00:07:02.809Z,102053
2018-09-26T00:08:07.968Z,102053
2018-09-26T00:09:13.501Z,102061
2018-09-26T00:10:18.625Z,102061
2018-09-26T00:11:24.052Z,102058
2018-09-26T00:12:29.706Z,102050
2018-09-26T00:13:34.572Z,102050
2018-09-26T00:14:40.079Z,102064
2018-09-26T00:15:45.556Z,102053
2018-09-26T00:16:50.431Z,102067
2018-09-26T00:17:55.294Z,102064
2018-09-26T00:19:00.418Z,102055
2018-09-26T00:20:05.883Z,102052
2018-09-26T00:21:11.039Z,102061
2018-09-26T00:22:16.923Z,102055
2018-09-26T00:23:21.533Z,102050
2018-09-26T00:24:41.455Z,102064
2018-09-26T00:25:46.653Z,102058
2018-09-26T00:26:52.083Z,102055
2018-09-26T00:27:57.892Z,102055
2018-09-26T00:29:03.091Z,102061
2018-09-26T00:30:08.255Z,102061
2018-09-26T00:31:13.497Z,102058
2018-09-26T00:32:18.992Z,102061
2018-09-26T00:33:24.141Z,102055
2018-09-26T00:34:29.791Z,102052
2018-09-26T00:35:34.963Z,102044
2018-09-26T00:36:40.128Z,102052
2018-09-26T00:37:45.879Z,102052
2018-09-26T00:38:51.317Z,102049
2018-09-26T00:39:56.779Z,102052
2018-09-26T00:41:02.240Z,102041
2018-09-26T00:42:07.430Z,102041
2018-09-26T00:43:12.907Z,102038
2018-09-26T00:44:18.206Z,102038
2018-09-26T00:45:23.658Z,102035
2018-09-26T00:46:43.998Z,102032
2018-09-26T00:47:49.425Z,102029
2018-09-26T00:48:54.412Z,102038
2018-09-26T00:49:59.867Z,102026
2018-09-26T00:51:05.297Z,102029
2018-09-26T00:52:10.801Z,102017
2018-09-26T00:53:15.995Z,102020
2018-09-26T00:54:21.149Z,102014
2018-09-26T00:55:40.937Z,102020
2018-09-26T00:56:46.382Z,102023
2018-09-26T00:57:51.780Z,102015
2018-09-26T00:58:57.221Z,102015
2018-09-26T01:00:02.084Z,102012
2018-09-26T01:01:06.657Z,102015
2018-09-26T01:02:11.557Z,102014
2018-09-26T01:03:17.023Z,102007
2018-09-26T01:04:22.765Z,102007
2018-09-26T01:05:27.966Z,101995
2018-09-26T01:06:33.800Z,102007
2018-09-26T01:07:39.325Z,102014
2018-09-26T01:08:44.473Z,101998
2018-09-26T01:09:50.169Z,102007
2018-09-26T01:10:55.793Z,102001
2018-09-26T01:12:01.253Z,101995
2018-09-26T01:13:06.418Z,101995
2018-09-26T01:14:11.388Z,101998
2018-09-26T01:15:16.900Z,101995
2018-09-26T01:16:22.292Z,102001
2018-09-26T01:17:27.786Z,101995
2018-09-26T01:18:33.674Z,102001
2018-09-26T01:19:38.879Z,101998
2018-09-26T01:20:44.165Z,101995
2018-09-26T01:21:49.736Z,101995
2018-09-26T01:22:55.211Z,101995
2018-09-26T01:24:00.423Z,101980
2018-09-26T01:25:05.879Z,101983
2018-09-26T01:26:10.753Z,101980
2018-09-26T01:27:15.721Z,101995
2018-09-26T01:28:21.479Z,101995
2018-09-26T01:29:26.405Z,101992
2018-09-26T01:30:32.111Z,101995
2018-09-26T01:31:37.905Z,101989
2018-09-26T01:32:43.361Z,101995
2018-09-26T01:33:48.610Z,101986
2018-09-26T01:34:53.750Z,101975
2018-09-26T01:35:58.954Z,101969
2018-09-26T01:37:04.635Z,101972
2018-09-26T01:38:10.078Z,101972
2018-09-26T01:39:15.574Z,101978
2018-09-26T01:40:21.274Z,101992
2018-09-26T01:41:26.842Z,101992
2018-09-26T01:42:32.280Z,101980
2018-09-26T01:43:37.423Z,101969
2018-09-26T01:44:42.115Z,101957
2018-09-26T01:45:47.253Z,101960
2018-09-26T01:46:52.118Z,101966
2018-09-26T01:47:56.980Z,101966
2018-09-26T01:49:02.403Z,101966
2018-09-26T01:50:07.360Z,101963
2018-09-26T01:51:12.794Z,101969
2018-09-26T01:52:18.228Z,101975
2018-09-26T01:53:23.385Z,101980
2018-09-26T01:54:29.263Z,101969
2018-09-26T01:55:34.131Z,101963
2018-09-26T01:56:39.272Z,101957
2018-09-26T01:57:45.201Z,101960
2018-09-26T01:58:50.762Z,101954
2018-09-26T01:59:55.385Z,101960
2018-09-26T02:01:01.068Z,101966
2018-09-26T02:02:05.746Z,101954
2018-09-26T02:03:10.929Z,101957
2018-09-26T02:04:16.610Z,101960
2018-09-26T02:05:21.807Z,101957
2018-09-26T02:06:27.412Z,101948
2018-09-26T02:07:32.279Z,101960
2018-09-26T02:08:37.785Z,101960
2018-09-26T02:09:43.489Z,101951
2018-09-26T02:10:48.629Z,101957
2018-09-26T02:11:53.528Z,101951
2018-09-26T02:12:58.658Z,101963
2018-09-26T02:14:03.240Z,101948
2018-09-26T02:15:08.408Z,101960
2018-09-26T02:16:14.343Z,101954
2018-09-26T02:17:19.816Z,101951
2018-09-26T02:18:40.453Z,101948
2018-09-26T02:19:46.045Z,101951
2018-09-26T02:20:51.579Z,101948
2018-09-26T02:21:57.481Z,101957
2018-09-26T02:23:02.341Z,101966
2018-09-26T02:24:07.804Z,101951
2018-09-26T02:25:12.720Z,101948
2018-09-26T02:26:17.869Z,101954
2018-09-26T02:27:23.080Z,101948
2018-09-26T02:28:28.670Z,101946
2018-09-26T02:29:34.098Z,101937
2018-09-26T02:30:39.411Z,101940
2018-09-26T02:31:44.837Z,101931
2018-09-26T02:32:50.271Z,101940
2018-09-26T02:33:55.822Z,101937
2018-09-26T02:35:01.281Z,101945
2018-09-26T02:36:06.239Z,101948
2018-09-26T02:37:11.788Z,101948
2018-09-26T02:38:17.242Z,101957
2018-09-26T02:39:22.117Z,101954
2018-09-26T02:40:27.570Z,101948
2018-09-26T02:41:32.773Z,101943
2018-09-26T02:42:38.595Z,101948
2018-09-26T02:43:44.027Z,101943
2018-09-26T02:44:49.558Z,101948
2018-09-26T02:45:55.391Z,101943
2018-09-26T02:47:00.578Z,101948
2018-09-26T02:48:05.250Z,101945
2018-09-26T02:49:10.802Z,101931
2018-09-26T02:50:16.222Z,101943
2018-09-26T02:51:21.150Z,101943
2018-09-26T02:52:26.712Z,101934
2018-09-26T02:53:32.181Z,101943
2018-09-26T02:54:37.527Z,101948
2018-09-26T02:55:43.061Z,101960
2018-09-26T02:56:48.717Z,101960
2018-09-26T02:57:53.612Z,101954
2018-09-26T02:58:58.796Z,101951
2018-09-26T03:00:03.408Z,101948
2018-09-26T03:01:08.594Z,101943
2018-09-26T03:02:14.027Z,101948
2018-09-26T03:03:19.171Z,101963
2018-09-26T03:04:25.026Z,101954
2018-09-26T03:05:30.418Z,101945
2018-09-26T03:06:36.114Z,101943
2018-09-26T03:07:41.576Z,101940
2018-09-26T03:08:47.004Z,101931
2018-09-26T03:09:52.765Z,101934
2018-09-26T03:10:57.874Z,101925
2018-09-26T03:12:03.865Z,101928
2018-09-26T03:13:09.694Z,101931
2018-09-26T03:14:14.872Z,101931
2018-09-26T03:15:20.075Z,101937
2018-09-26T03:16:25.526Z,101931
2018-09-26T03:17:30.814Z,101925
2018-09-26T03:18:36.806Z,101922
2018-09-26T03:19:42.402Z,101934
2018-09-26T03:20:47.845Z,101942
2018-09-26T03:21:53.414Z,101939
2018-09-26T03:22:58.936Z,101937
2018-09-26T03:24:03.794Z,101937
2018-09-26T03:25:10.061Z,101951
2018-09-26T03:26:15.281Z,101948
2018-09-26T03:27:20.156Z,101951
2018-09-26T03:28:25.718Z,101945
2018-09-26T03:29:30.871Z,101948
2018-09-26T03:30:36.260Z,101948
2018-09-26T03:31:41.538Z,101942
2018-09-26T03:32:46.529Z,101948
2018-09-26T03:33:52.546Z,101951
2018-09-26T03:34:57.676Z,101936
2018-09-26T03:36:02.888Z,101939
2018-09-26T03:37:08.305Z,101942
2018-09-26T03:38:13.836Z,101951
2018-09-26T03:39:19.263Z,101951
2018-09-26T03:40:25.067Z,101939
2018-09-26T03:41:30.403Z,101939
2018-09-26T03:42:36.195Z,101945
2018-09-26T03:43:41.624Z,101957
2018-09-26T03:44:46.843Z,101945
2018-09-26T03:45:52.058Z,101939
2018-09-26T03:46:56.918Z,101939
2018-09-26T03:48:02.327Z,101933
2018-09-26T03:49:08.020Z,101919
2018-09-26T03:50:12.629Z,101913
2018-09-26T03:51:17.778Z,101919
2018-09-26T03:52:23.177Z,101916
2018-09-26T03:53:28.357Z,101910
2018-09-26T03:54:33.974Z,101916
2018-09-26T03:55:39.161Z,101922
2018-09-26T03:56:44.376Z,101922
2018-09-26T03:57:50.384Z,101925
2018-09-26T03:58:55.812Z,101919
2018-09-26T04:00:00.686Z,101919
2018-09-26T04:01:06.344Z,101916
2018-09-26T04:02:11.203Z,101910
2018-09-26T04:03:16.358Z,101913
2018-09-26T04:04:22.071Z,101916
2018-09-26T04:05:27.771Z,101904
2018-09-26T04:06:33.001Z,101887
2018-09-26T04:07:37.936Z,101890
2018-09-26T04:08:43.364Z,101889
2018-09-26T04:09:48.191Z,101892
2018-09-26T04:10:53.372Z,101881
2018-09-26T04:11:58.245Z,101892
2018-09-26T04:13:03.895Z,101895
2018-09-26T04:14:09.364Z,101892
2018-09-26T04:15:14.527Z,101889
2018-09-26T04:16:19.937Z,101883
2018-09-26T04:17:25.372Z,101889
2018-09-26T04:18:30.817Z,101883
2018-09-26T04:19:35.966Z,101880
2018-09-26T04:20:40.837Z,101877
2018-09-26T04:21:46.447Z,101883
2018-09-26T04:22:51.607Z,101880
2018-09-26T04:23:56.468Z,101883
2018-09-26T04:25:01.300Z,101886
2018-09-26T04:26:06.369Z,101880
2018-09-26T04:27:12.251Z,101880
2018-09-26T04:28:18.900Z,101874
2018-09-26T04:29:24.329Z,101882
2018-09-26T04:30:30.249Z,101882
2018-09-26T04:31:35.695Z,101882
2018-09-26T04:32:41.673Z,101885
2018-09-26T04:33:47.989Z,101873
2018-09-26T04:34:53.369Z,101879
2018-09-26T04:35:58.535Z,101879
2018-09-26T04:37:03.717Z,101882
2018-09-26T04:38:08.871Z,101879
2018-09-26T04:39:13.550Z,101876
2018-09-26T04:40:19.399Z,101876
2018-09-26T04:41:24.314Z,101879
2018-09-26T04:42:30.075Z,101873
2018-09-26T04:43:35.215Z,101865
2018-09-26T04:44:40.697Z,101862
2018-09-26T04:45:46.217Z,101873
2018-09-26T04:46:51.658Z,101853
2018-09-26T04:47:57.127Z,101853
2018-09-26T04:49:02.593Z,101850
2018-09-26T04:50:07.754Z,101853
2018-09-26T04:51:12.897Z,101859
2018-09-26T04:52:18.339Z,101862
2018-09-26T04:53:23.478Z,101862
2018-09-26T04:54:29.129Z,101875
2018-09-26T04:55:34.341Z,101881
2018-09-26T04:56:39.528Z,101864
2018-09-26T04:57:45.308Z,101881
2018-09-26T04:58:50.988Z,101864
2018-09-26T04:59:55.590Z,101864
2018-09-26T05:01:00.814Z,101864
2018-09-26T05:02:05.402Z,101861
2018-09-26T05:03:10.279Z,101853
2018-09-26T05:04:15.970Z,101858
2018-09-26T05:05:21.196Z,101864
2018-09-26T05:06:26.793Z,101861
2018-09-26T05:07:32.309Z,101855
2018-09-26T05:08:36.959Z,101858
2018-09-26T05:09:42.547Z,101858
2018-09-26T05:10:48.007Z,101878
2018-09-26T05:11:52.640Z,101858
2018-09-26T05:12:58.237Z,101875
2018-09-26T05:14:03.145Z,101864
2018-09-26T05:15:08.395Z,101852
2018-09-26T05:16:14.083Z,101849
2018-09-26T05:17:19.534Z,101858
2018-09-26T05:18:24.443Z,101849
2018-09-26T05:19:44.732Z,101861
2018-09-26T05:20:50.171Z,101864
2018-09-26T05:21:55.767Z,101861
2018-09-26T05:23:01.038Z,101855
2018-09-26T05:24:06.013Z,101880
2018-09-26T05:25:11.169Z,101871
2018-09-26T05:26:16.517Z,101880
2018-09-26T05:27:22.046Z,101871
2018-09-26T05:28:41.826Z,101880
2018-09-26T05:29:47.355Z,101874
2018-09-26T05:30:52.822Z,101871
2018-09-26T05:31:57.696Z,101869
2018-09-26T05:33:02.567Z,101874
2018-09-26T05:34:07.767Z,101863
2018-09-26T05:35:13.271Z,101877
2018-09-26T05:36:17.857Z,101877
2018-09-26T05:37:23.641Z,101877
2018-09-26T05:38:28.603Z,101871
2018-09-26T05:39:33.801Z,101883
2018-09-26T05:40:38.729Z,101886
2018-09-26T05:41:44.113Z,101880
2018-09-26T05:42:50.005Z,101880
2018-09-26T05:43:55.159Z,101894
2018-09-26T05:45:00.085Z,101880
2018-09-26T05:46:05.472Z,101880
2018-09-26T05:47:10.948Z,101880
2018-09-26T05:48:16.447Z,101882
2018-09-26T05:49:21.913Z,101882
2018-09-26T05:50:27.350Z,101891
2018-09-26T05:51:33.180Z,101888
2018-09-26T05:52:38.659Z,101882
2018-09-26T05:53:43.805Z,101874
2018-09-26T05:54:49.236Z,101888
2018-09-26T05:55:54.388Z,101888
2018-09-26T05:56:59.834Z,101885
2018-09-26T05:58:05.248Z,101885
2018-09-26T05:59:10.283Z,101876
2018-09-26T06:00:15.565Z,101885
2018-09-26T06:01:21.712Z,101876
2018-09-26T06:02:26.867Z,101882
2018-09-26T06:03:32.708Z,101876
2018-09-26T06:04:38.182Z,101885
2018-09-26T06:05:43.062Z,101882
2018-09-26T06:06:48.263Z,101879
2018-09-26T06:07:53.533Z,101876
2018-09-26T06:08:59.032Z,101873
2018-09-26T06:10:04.168Z,101870
2018-09-26T06:11:09.081Z,101876
2018-09-26T06:12:13.656Z,101857
2018-09-26T06:13:19.074Z,101854
2018-09-26T06:14:24.173Z,101865
2018-09-26T06:15:30.007Z,101865
2018-09-26T06:16:34.887Z,101873
2018-09-26T06:17:40.069Z,101851
2018-09-26T06:18:45.845Z,101845
2018-09-26T06:19:50.723Z,101854
2018-09-26T06:20:55.590Z,101851
2018-09-26T06:22:00.781Z,101854
2018-09-26T06:23:05.950Z,101860
2018-09-26T06:24:11.421Z,101862
2018-09-26T06:25:17.502Z,101857
2018-09-26T06:26:22.948Z,101857
2018-09-26T06:27:28.710Z,101862
2018-09-26T06:28:33.932Z,101859
2018-09-26T06:29:39.393Z,101854
2018-09-26T06:30:45.027Z,101857
2018-09-26T06:31:49.685Z,101851
2018-09-26T06:32:54.841Z,101851
2018-09-26T06:34:00.337Z,101857
2018-09-26T06:35:05.665Z,101862
2018-09-26T06:36:11.396Z,101848
2018-09-26T06:37:17.226Z,101854
2018-09-26T06:38:22.381Z,101845
2018-09-26T06:39:27.577Z,101851
2018-09-26T06:40:33.212Z,101845
2018-09-26T06:41:38.029Z,101845
2018-09-26T06:42:43.185Z,101839
2018-09-26T06:43:48.691Z,101836
2018-09-26T06:44:53.832Z,101830
2018-09-26T06:45:59.509Z,101825
2018-09-26T06:47:04.854Z,101833
2018-09-26T06:48:10.027Z,101831
2018-09-26T06:49:15.172Z,101833
2018-09-26T06:50:20.394Z,101828
2018-09-26T06:52:45.876Z,101836
2018-09-26T06:53:51.198Z,101833
2018-09-26T06:54:56.949Z,101833
2018-09-26T06:56:02.114Z,101845
2018-09-26T06:57:07.265Z,101842
2018-09-26T06:58:12.852Z,101833
2018-09-26T06:59:18.005Z,101831
2018-09-26T07:00:23.453Z,101839
2018-09-26T07:01:28.991Z,101825
2018-09-26T07:02:33.965Z,101825
2018-09-26T07:03:39.649Z,101831
2018-09-26T07:04:44.622Z,101831
2018-09-26T07:05:50.016Z,101828
2018-09-26T07:06:55.441Z,101831
2018-09-26T07:08:00.135Z,101820
2018-09-26T07:09:05.572Z,101814
2018-09-26T07:10:10.974Z,101825
2018-09-26T07:11:16.416Z,101834
2018-09-26T07:12:21.855Z,101834
2018-09-26T07:13:27.765Z,101839
2018-09-26T07:14:33.232Z,101842
2018-09-26T07:15:38.969Z,101831
2018-09-26T07:16:43.853Z,101837
2018-09-26T07:17:49.085Z,101828
2018-09-26T07:18:54.481Z,101845
2018-09-26T07:19:59.942Z,101834
2018-09-26T07:21:04.889Z,101834
2018-09-26T07:22:11.773Z,101846
2018-09-26T07:23:16.927Z,101840
2018-09-26T07:24:22.077Z,101837
2018-09-26T07:25:27.857Z,101831
2018-09-26T07:26:33.463Z,101837
2018-09-26T07:27:39.340Z,101829
2018-09-26T07:28:44.259Z,101835
2018-09-26T07:29:49.697Z,101832
2018-09-26T07:30:55.155Z,101829
2018-09-26T07:32:00.833Z,101838
2018-09-26T07:33:06.070Z,101838
2018-09-26T07:34:11.542Z,101832
2018-09-26T07:35:16.444Z,101832
2018-09-26T07:36:21.875Z,101832
2018-09-26T07:37:41.658Z,101835
2018-09-26T07:38:46.846Z,101832
2018-09-26T07:39:52.243Z,101829
2018-09-26T07:40:57.883Z,101838
2018-09-26T07:42:02.791Z,101841
2018-09-26T07:43:07.944Z,101835
2018-09-26T07:44:13.418Z,101832
2018-09-26T07:45:18.654Z,101827
2018-09-26T07:46:24.677Z,101827
2018-09-26T07:47:30.154Z,101827
2018-09-26T07:48:35.078Z,101827
2018-09-26T07:49:40.504Z,101836
2018-09-26T07:50:45.731Z,101830
2018-09-26T07:51:51.182Z,101827
2018-09-26T07:52:56.394Z,101822
2018-09-26T07:54:01.689Z,101813
2018-09-26T07:55:06.924Z,101819
2018-09-26T07:56:12.082Z,101822
2018-09-26T07:57:17.564Z,101817
2018-09-26T07:58:23.261Z,101808
2018-09-26T07:59:28.689Z,101819
2018-09-26T08:00:34.635Z,101808
2018-09-26T08:01:40.283Z,101811
2018-09-26T08:02:45.452Z,101808
2018-09-26T08:03:50.626Z,101824
2018-09-26T08:04:54.653Z,101824
2018-09-26T08:06:00.209Z,101823
2018-09-26T08:07:06.082Z,101814
2018-09-26T08:08:11.320Z,101817
2018-09-26T08:09:16.503Z,101825
2018-09-26T08:10:21.902Z,101825
2018-09-26T08:11:27.919Z,101842
2018-09-26T08:12:34.181Z,101842
2018-09-26T08:13:39.688Z,101836
2018-09-26T08:14:44.847Z,101845
2018-09-26T08:15:50.304Z,101848
2018-09-26T08:16:55.434Z,101851
2018-09-26T08:18:00.094Z,101845
2018-09-26T08:19:05.283Z,101834
2018-09-26T08:20:10.323Z,101840
2018-09-26T08:21:15.236Z,101837
2018-09-26T08:22:20.735Z,101834
2018-09-26T08:23:26.519Z,101828
2018-09-26T08:24:31.719Z,101851
2018-09-26T08:25:36.734Z,101840
2018-09-26T08:26:41.922Z,101840
2018-09-26T08:27:47.351Z,101831
2018-09-26T08:28:52.821Z,101843
2018-09-26T08:29:58.335Z,101849
2018-09-26T08:31:03.870Z,101846
2018-09-26T08:32:09.126Z,101846
2018-09-26T08:33:13.987Z,101857
2018-09-26T08:34:19.116Z,101846
2018-09-26T08:35:24.345Z,101860
2018-09-26T08:36:30.013Z,101846
2018-09-26T08:37:35.368Z,101846
2018-09-26T08:38:40.526Z,101849
2018-09-26T08:39:46.341Z,101837
2018-09-26T08:40:50.927Z,101843
2018-09-26T08:41:55.800Z,101849
2018-09-26T08:43:02.094Z,101840
2018-09-26T08:44:07.272Z,101849
2018-09-26T08:45:12.470Z,101843
2018-09-26T08:46:17.694Z,101852
2018-09-26T08:47:22.546Z,101846
2018-09-26T08:48:28.134Z,101846
2018-09-26T08:49:33.025Z,101846
2018-09-26T08:50:38.255Z,101861
2018-09-26T08:51:44.079Z,101858
2018-09-26T08:52:49.221Z,101870
2018-09-26T08:53:55.056Z,101852
2018-09-26T08:55:00.825Z,101849
2018-09-26T08:56:06.016Z,101849
2018-09-26T08:57:11.162Z,101843
2018-09-26T08:58:16.339Z,101849
2018-09-26T08:59:21.232Z,101843
2018-09-26T09:00:41.617Z,101838
2018-09-26T09:01:47.113Z,101843
2018-09-26T09:02:52.231Z,101846
2018-09-26T09:03:58.137Z,101843
2018-09-26T09:05:03.280Z,101843
2018-09-26T09:06:08.524Z,101843
2018-09-26T09:07:14.675Z,101844
2018-09-26T09:08:19.548Z,101846
2018-09-26T09:09:24.412Z,101838
2018-09-26T09:10:44.793Z,101841
2018-09-26T09:11:50.013Z,101829
2018-09-26T09:12:55.928Z,101838
2018-09-26T09:14:00.631Z,101846
2018-09-26T09:15:05.871Z,101846
2018-09-26T09:16:10.360Z,101832
2018-09-26T09:17:15.251Z,101841
2018-09-26T09:18:20.680Z,101846
2018-09-26T09:19:25.737Z,101844
2018-09-26T09:20:31.169Z,101846
2018-09-26T09:21:36.574Z,101838
2018-09-26T09:22:41.999Z,101844
2018-09-26T09:23:46.952Z,101838
2018-09-26T09:24:51.793Z,101846
2018-09-26T09:25:56.772Z,101838
2018-09-26T09:27:01.959Z,101826
2018-09-26T09:28:07.596Z,101829
2018-09-26T09:29:12.575Z,101821
2018-09-26T09:30:17.955Z,101829
2018-09-26T09:31:23.091Z,101821
2018-09-26T09:32:27.725Z,101826
2018-09-26T09:33:33.539Z,101829
2018-09-26T09:34:38.917Z,101818
2018-09-26T09:35:43.321Z,101816
2018-09-26T09:36:48.498Z,101826
2018-09-26T09:37:53.962Z,101826
2018-09-26T09:38:59.117Z,101823
2018-09-26T09:40:04.137Z,101829
2018-09-26T09:41:09.606Z,101829
2018-09-26T09:42:14.758Z,101826
2018-09-26T09:43:19.921Z,101835
2018-09-26T09:44:25.546Z,101823
2018-09-26T09:45:31.653Z,101829
2018-09-26T09:46:36.813Z,101826
2018-09-26T09:47:42.090Z,101835
2018-09-26T09:48:47.256Z,101826
2018-09-26T09:49:52.506Z,101826
2018-09-26T09:50:57.962Z,101829
2018-09-26T09:52:04.074Z,101826
2018-09-26T09:53:09.277Z,101835
2018-09-26T09:54:14.358Z,101832
2018-09-26T09:55:19.763Z,101835
2018-09-26T09:56:24.614Z,101826
2018-09-26T09:57:30.638Z,101829
2018-09-26T09:58:35.837Z,101832
2018-09-26T09:59:41.534Z,101816
2018-09-26T10:00:47.310Z,101835
2018-09-26T10:01:52.453Z,101823
2018-09-26T10:02:58.382Z,101823
2018-09-26T10:04:05.296Z,101824
2018-09-26T10:05:10.242Z,101832
2018-09-26T10:06:15.718Z,101838
2018-09-26T10:07:21.136Z,101835
2018-09-26T10:08:26.872Z,101829
2018-09-26T10:09:32.456Z,101832
2018-09-26T10:10:37.597Z,101832
2018-09-26T10:11:42.857Z,101829
2018-09-26T10:12:48.491Z,101832
2018-09-26T10:13:53.919Z,101822
2018-09-26T10:14:59.133Z,101827
2018-09-26T10:16:04.830Z,101829
2018-09-26T10:17:09.710Z,101824
2018-09-26T10:18:14.868Z,101832
2018-09-26T10:19:20.000Z,101832
2018-09-26T10:20:25.662Z,101844
2018-09-26T10:21:31.050Z,101838
2018-09-26T10:22:36.508Z,101844
2018-09-26T10:23:41.945Z,101841
2018-09-26T10:24:47.679Z,101838
2018-09-26T10:25:53.113Z,101835
2018-09-26T10:26:58.757Z,101832
2018-09-26T10:28:04.248Z,101838
2018-09-26T10:29:09.202Z,101838
2018-09-26T10:30:14.450Z,101838
2018-09-26T10:31:19.956Z,101835
2018-09-26T10:32:25.704Z,101830
2018-09-26T10:33:31.168Z,101830
2018-09-26T10:34:36.319Z,101827
2018-09-26T10:35:41.518Z,101824
2018-09-26T10:37:02.036Z,101819
2018-09-26T10:38:07.256Z,101810
2018-09-26T10:39:12.522Z,101813
2018-09-26T10:40:17.990Z,101816
2018-09-26T10:41:23.134Z,101816
2018-09-26T10:42:43.485Z,101807
2018-09-26T10:43:48.636Z,101802
2018-09-26T10:44:53.845Z,101799
2018-09-26T10:45:59.019Z,101807
2018-09-26T10:47:03.718Z,101804
2018-09-26T10:48:08.925Z,101787
2018-09-26T10:49:14.484Z,101796
2018-09-26T10:50:19.863Z,101799
2018-09-26T10:51:40.838Z,101807
2018-09-26T10:52:45.721Z,101796
2018-09-26T10:53:50.313Z,101799
2018-09-26T10:54:55.830Z,101790
2018-09-26T10:56:00.691Z,101802
2018-09-26T10:57:05.919Z,101813
2018-09-26T10:58:11.489Z,101805
2018-09-26T10:59:16.945Z,101807
2018-09-26T11:00:22.161Z,101796
2018-09-26T11:01:27.964Z,101790
2018-09-26T11:02:33.274Z,101799
2018-09-26T11:03:39.094Z,101793
2018-09-26T11:04:43.992Z,101799
2018-09-26T11:05:48.889Z,101790
2018-09-26T11:06:54.086Z,101790
2018-09-26T11:07:59.513Z,101793
2018-09-26T11:09:04.717Z,101787
2018-09-26T11:10:10.154Z,101787
2018-09-26T11:11:14.563Z,101787
2018-09-26T11:12:19.717Z,101784
2018-09-26T11:13:25.030Z,101776
2018-09-26T11:14:31.438Z,101770
2018-09-26T11:15:36.828Z,101767
2018-09-26T11:16:42.264Z,101767
2018-09-26T11:17:47.714Z,101770
2018-09-26T11:18:53.466Z,101764
2018-09-26T11:19:59.172Z,101764
2018-09-26T11:21:04.401Z,101767
2018-09-26T11:22:10.534Z,101770
2018-09-26T11:23:16.452Z,101773
2018-09-26T11:24:21.611Z,101761
2018-09-26T11:25:27.742Z,101764
2018-09-26T11:26:32.818Z,101761
2018-09-26T11:27:38.394Z,101761
2018-09-26T11:28:43.861Z,101756
2018-09-26T11:29:49.025Z,101767
2018-09-26T11:30:54.525Z,101758
2018-09-26T11:32:00.250Z,101755
2018-09-26T11:33:05.759Z,101758
2018-09-26T11:34:11.385Z,101755
2018-09-26T11:35:16.991Z,101750
2018-09-26T11:36:22.479Z,101753
2018-09-26T11:37:28.089Z,101753
2018-09-26T11:38:33.308Z,101756
2018-09-26T11:39:38.888Z,101753
2018-09-26T11:40:44.410Z,101747
2018-09-26T11:41:49.840Z,101744
2018-09-26T11:42:55.583Z,101750
2018-09-26T11:44:00.446Z,101753
2018-09-26T11:45:05.633Z,101747
2018-09-26T11:46:10.297Z,101750
2018-09-26T11:47:15.520Z,101747
2018-09-26T11:48:20.699Z,101738
2018-09-26T11:49:26.237Z,101744
2018-09-26T11:50:31.385Z,101741
2018-09-26T11:51:37.312Z,101735
2018-09-26T11:52:42.780Z,101747
2018-09-26T11:53:48.464Z,101735
2018-09-26T11:54:53.961Z,101732
2018-09-26T11:55:59.646Z,101747
2018-09-26T11:57:04.637Z,101738
2018-09-26T11:58:10.587Z,101741
2018-09-26T11:59:16.061Z,101741
2018-09-26T12:00:21.230Z,101738
2018-09-26T12:01:41.603Z,101738
2018-09-26T12:02:46.937Z,101738
2018-09-26T12:03:52.828Z,101735
2018-09-26T12:04:57.976Z,101735
2018-09-26T12:06:02.660Z,101735
2018-09-26T12:07:08.308Z,101718
2018-09-26T12:08:14.222Z,101721
2018-09-26T12:09:19.263Z,101724
2018-09-26T12:10:25.485Z,101733
2018-09-26T12:11:30.545Z,101718
2018-09-26T12:12:36.197Z,101724
2018-09-26T12:13:41.370Z,101721
2018-09-26T12:14:46.880Z,101715
2018-09-26T12:15:52.898Z,101718
2018-09-26T12:16:58.102Z,101724
2018-09-26T12:18:02.974Z,101721
2018-09-26T12:19:08.082Z,101715
2018-09-26T12:20:13.798Z,101721
2018-09-26T12:21:32.467Z,101721
2018-09-26T12:22:37.489Z,101709
2018-09-26T12:23:43.525Z,101718
2018-09-26T12:24:49.464Z,101704
2018-09-26T12:25:54.664Z,101709
2018-09-26T12:26:59.571Z,101706
2018-09-26T12:28:05.131Z,101706
2018-09-26T12:29:10.097Z,101701
2018-09-26T12:30:15.557Z,101701
2018-09-26T12:31:21.093Z,101698
2018-09-26T12:32:26.535Z,101689
2018-09-26T12:33:32.117Z,101695
2018-09-26T12:34:37.666Z,101683
2018-09-26T12:35:43.365Z,101683
2018-09-26T12:36:49.091Z,101686
2018-09-26T12:37:54.246Z,101689
2018-09-26T12:38:59.206Z,101692
2018-09-26T12:40:04.973Z,101698
2018-09-26T12:41:10.225Z,101686
2018-09-26T12:42:15.666Z,101681
2018-09-26T12:43:21.415Z,101681
2018-09-26T12:44:26.880Z,101681
2018-09-26T12:45:32.599Z,101679
2018-09-26T12:46:37.778Z,101676
2018-09-26T12:47:43.236Z,101679
2018-09-26T12:48:48.665Z,101670
2018-09-26T12:49:54.199Z,101681
2018-09-26T12:50:59.340Z,101686
2018-09-26T12:52:05.127Z,101681
2018-09-26T12:53:10.442Z,101673
2018-09-26T12:54:15.871Z,101679
2018-09-26T12:55:20.992Z,101683
2018-09-26T12:56:26.434Z,101676
2018-09-26T12:57:31.021Z,101679
2018-09-26T12:58:36.307Z,101679
2018-09-26T12:59:40.885Z,101670
2018-09-26T13:00:46.907Z,101673
2018-09-26T13:01:52.841Z,101682
2018-09-26T13:02:58.276Z,101670
2018-09-26T13:04:03.449Z,101661
2018-09-26T13:05:08.703Z,101673
2018-09-26T13:06:13.645Z,101658
2018-09-26T13:07:19.410Z,101673
2018-09-26T13:08:25.186Z,101670
2018-09-26T13:09:31.315Z,101655
2018-09-26T13:10:36.202Z,101661
2018-09-26T13:11:41.766Z,101667
2018-09-26T13:12:46.902Z,101653
2018-09-26T13:13:51.774Z,101667
2018-09-26T13:14:56.365Z,101655
2018-09-26T13:16:01.776Z,101650
2018-09-26T13:17:06.392Z,101653
2018-09-26T13:18:12.021Z,101647
2018-09-26T13:19:17.611Z,101650
2018-09-26T13:20:23.382Z,101644
2018-09-26T13:21:29.480Z,101650
2018-09-26T13:22:34.663Z,101644
2018-09-26T13:23:39.534Z,101641
2018-09-26T13:24:45.219Z,101641
2018-09-26T13:25:50.498Z,101629
2018-09-26T13:26:55.384Z,101632
2018-09-26T13:28:00.636Z,101638
2018-09-26T13:29:05.511Z,101629
2018-09-26T13:30:10.864Z,101629
2018-09-26T13:31:16.456Z,101629
2018-09-26T13:32:20.856Z,101635
2018-09-26T13:33:26.360Z,101632
2018-09-26T13:34:31.800Z,101632
2018-09-26T13:35:37.030Z,101632
2018-09-26T13:36:42.759Z,101635
2018-09-26T13:37:48.215Z,101624
2018-09-26T13:38:53.973Z,101624
2018-09-26T13:39:59.835Z,101612